This is the latest recevied weather packets stored in our database for station/object LA3SP-1. If no packets are shown the sender has not sent any weather packets the latest 10 day(s).
| Time | Temp. | Humidity | Pressure | Rain* | Wind** | Luminosity | Snow |
|---|---|---|---|---|---|---|---|
| 1777521811 | 4.44° C | 49% | 1024.1 hPa | 0 mm | - | - | - |
| 1777521209 | 4.44° C | 49% | 1024.4 hPa | 0 mm | - | - | - |
| 1777520608 | 5° C | 48% | 1024.3 hPa | 0 mm | - | - | - |
| 1777520006 | 5° C | 48% | 1024.4 hPa | 0 mm | - | - | - |
| 1777519405 | 4.44° C | 49% | 1024.4 hPa | 0 mm | - | - | - |
| 1777518803 | 4.44° C | 50% | 1024.3 hPa | 0 mm | - | - | - |
| 1777517601 | 3.33° C | 54% | 1024.4 hPa | 0 mm | - | - | - |
| 1777516999 | 1.67° C | 61% | 1024.3 hPa | 0 mm | - | - | - |
| 1777516398 | 1.67° C | 61% | 1024.5 hPa | 0 mm | - | - | - |
| 1777515796 | 2.22° C | 59% | 1024.5 hPa | 0 mm | - | - | - |
| 1777515195 | 2.78° C | 58% | 1024.6 hPa | 0 mm | - | - | - |
| 1777514594 | 2.22° C | 57% | 1024.6 hPa | 0 mm | - | - | - |
| 1777513992 | 2.78° C | 56% | 1024.6 hPa | 0 mm | - | - | - |
| 1777513390 | 2.22° C | 57% | 1024.6 hPa | 0 mm | - | - | - |
| 1777512789 | 2.22° C | 59% | 1024.6 hPa | 0 mm | - | - | - |
| 1777512188 | 2.22° C | 58% | 1024.3 hPa | 0 mm | - | - | - |
| 1777511586 | 2.78° C | 56% | 1024.2 hPa | 0 mm | - | - | - |
| 1777510985 | 3.33° C | 54% | 1024.3 hPa | 0 mm | - | - | - |
| 1777509782 | 3.89° C | 53% | 1024.4 hPa | 0 mm | - | - | - |
| 1777509181 | 5° C | 49% | 1024.4 hPa | 0 mm | - | - | - |
| 1777509085 | 6.11° C | 47% | 1024.5 hPa | 0 mm | - | - | - |
| 1777508579 | 5.56° C | 49% | 1024.5 hPa | 0 mm | - | - | - |
| 1777507978 | 6.11° C | 47% | 1024.5 hPa | 0 mm | - | - | - |
| 1777507376 | 6.11° C | 47% | 1024.5 hPa | 0 mm | - | - | - |
| 1777506174 | 6.11° C | 48% | 1024.7 hPa | 0 mm | - | - | - |
* Rain latest 24 hours (hover to see other rain measurements)
** Current wind speed in m/s (hover to see current wind gust speed)